createdAt,value
2023-05-17T00:02:04.576Z,100.00
2023-05-17T00:04:34.414Z,100.00
2023-05-17T00:07:02.795Z,100.00
2023-05-17T00:09:31.159Z,100.00
2023-05-17T00:12:02.100Z,100.00
2023-05-17T00:14:30.438Z,100.00
2023-05-17T00:16:58.597Z,100.00
2023-05-17T00:19:26.983Z,100.00
2023-05-17T00:21:56.645Z,100.00
2023-05-17T00:24:24.947Z,100.00
2023-05-17T00:26:53.299Z,100.00
2023-05-17T00:29:21.634Z,100.00
2023-05-17T00:31:49.988Z,100.00
2023-05-17T00:34:18.338Z,100.00
2023-05-17T00:36:46.689Z,100.00
2023-05-17T00:39:16.354Z,100.00
2023-05-17T00:41:45.229Z,100.00
2023-05-17T00:44:13.554Z,100.00
2023-05-17T00:46:42.018Z,100.00
2023-05-17T00:49:10.409Z,100.00
2023-05-17T00:51:39.133Z,100.00
2023-05-17T00:54:07.910Z,100.00
2023-05-17T00:56:37.667Z,100.00
2023-05-17T00:59:07.962Z,100.00
2023-05-17T01:01:38.389Z,100.00
2023-05-17T01:04:07.555Z,100.00
2023-05-17T01:06:37.212Z,100.00
2023-05-17T01:09:06.280Z,100.00
2023-05-17T01:11:44.072Z,100.00
2023-05-17T01:14:24.026Z,100.00
2023-05-17T01:16:59.157Z,100.00
2023-05-17T01:19:51.793Z,100.00
2023-05-17T01:22:33.231Z,100.00
2023-05-17T01:25:12.655Z,100.00
2023-05-17T01:27:44.790Z,100.00
2023-05-17T01:30:15.368Z,100.00
2023-05-17T01:32:44.978Z,100.00
2023-05-17T01:35:13.769Z,100.00
2023-05-17T01:37:42.117Z,100.00
2023-05-17T01:40:11.947Z,100.00
2023-05-17T01:42:44.700Z,100.00
2023-05-17T01:45:19.670Z,100.00
2023-05-17T01:47:54.736Z,100.00
2023-05-17T01:50:26.441Z,100.00
2023-05-17T01:52:56.428Z,100.00
2023-05-17T01:55:33.442Z,100.00
2023-05-17T01:58:07.858Z,100.00
2023-05-17T02:00:37.791Z,100.00
2023-05-17T02:03:06.189Z,100.00
2023-05-17T02:05:34.421Z,100.00
2023-05-17T02:08:02.708Z,100.00
2023-05-17T02:10:31.085Z,100.00
2023-05-17T02:12:59.359Z,100.00
2023-05-17T02:15:29.222Z,100.00
2023-05-17T02:17:57.644Z,100.00
2023-05-17T02:20:26.481Z,100.00
2023-05-17T02:22:55.189Z,100.00
2023-05-17T02:25:23.432Z,100.00
2023-05-17T02:27:51.720Z,100.00
2023-05-17T02:30:22.400Z,100.00
2023-05-17T02:32:53.414Z,100.00
2023-05-17T02:35:21.968Z,100.00
2023-05-17T02:37:50.340Z,100.00
2023-05-17T02:40:19.037Z,100.00
2023-05-17T02:42:47.360Z,100.00
2023-05-17T02:45:15.660Z,100.00
2023-05-17T02:47:43.951Z,100.00
2023-05-17T02:50:13.870Z,100.00
2023-05-17T02:52:42.198Z,100.00
2023-05-17T02:55:11.362Z,100.00
2023-05-17T02:57:39.618Z,100.00
2023-05-17T03:00:10.624Z,100.00
2023-05-17T03:02:38.975Z,100.00
2023-05-17T03:05:08.443Z,100.00
2023-05-17T03:07:38.245Z,100.00
2023-05-17T03:10:07.218Z,100.00
2023-05-17T03:12:35.557Z,100.00
2023-05-17T03:15:04.411Z,100.00
2023-05-17T03:17:32.879Z,100.00
2023-05-17T03:20:01.376Z,100.00
2023-05-17T03:22:29.703Z,100.00
2023-05-17T03:24:59.394Z,100.00
2023-05-17T03:27:27.621Z,100.00
2023-05-17T03:29:55.969Z,100.00
2023-05-17T03:32:24.800Z,100.00
2023-05-17T03:34:53.151Z,100.00
2023-05-17T03:37:21.416Z,100.00
2023-05-17T03:39:49.770Z,100.00
2023-05-17T03:42:19.497Z,100.00
2023-05-17T03:44:47.808Z,100.00
2023-05-17T03:47:16.122Z,100.00
2023-05-17T03:49:44.725Z,100.00
2023-05-17T03:52:12.995Z,100.00
2023-05-17T03:54:41.229Z,100.00
2023-05-17T03:57:09.553Z,100.00
2023-05-17T03:59:39.229Z,100.00
2023-05-17T04:02:08.134Z,100.00
2023-05-17T04:04:36.398Z,100.00
2023-05-17T04:07:04.674Z,100.00
2023-05-17T04:09:35.208Z,100.00
2023-05-17T04:12:03.448Z,100.00
2023-05-17T04:14:31.991Z,100.00
2023-05-17T04:17:01.736Z,100.00
2023-05-17T04:19:30.311Z,100.00
2023-05-17T04:21:58.610Z,100.00
2023-05-17T04:24:26.982Z,100.00
2023-05-17T04:26:55.226Z,100.00
2023-05-17T04:29:23.650Z,100.00
2023-05-17T04:31:51.980Z,100.00
2023-05-17T04:34:22.512Z,100.00
2023-05-17T04:36:50.768Z,100.00
2023-05-17T04:39:19.091Z,100.00
2023-05-17T04:41:47.577Z,100.00
2023-05-17T04:44:15.883Z,100.00
2023-05-17T04:46:45.613Z,100.00
2023-05-17T04:49:14.437Z,100.00
2023-05-17T04:51:44.144Z,100.00
2023-05-17T04:54:12.529Z,100.00
2023-05-17T04:56:40.803Z,100.00
2023-05-17T04:59:09.077Z,100.00
2023-05-17T05:01:37.607Z,100.00
2023-05-17T05:04:07.368Z,100.00
2023-05-17T05:06:35.765Z,100.00
2023-05-17T05:09:05.704Z,100.00
2023-05-17T05:11:33.981Z,100.00
2023-05-17T05:14:02.342Z,100.00
2023-05-17T05:16:30.604Z,100.00
2023-05-17T05:18:59.220Z,100.00
2023-05-17T05:21:27.659Z,100.00
2023-05-17T05:23:55.938Z,100.00
2023-05-17T05:26:25.625Z,100.00
2023-05-17T05:28:53.883Z,100.00
2023-05-17T05:31:22.125Z,100.00
2023-05-17T05:33:50.526Z,100.00
2023-05-17T05:36:19.018Z,100.00
2023-05-17T05:38:47.753Z,100.00
2023-05-17T05:41:16.031Z,100.00
2023-05-17T05:43:45.768Z,100.00
2023-05-17T05:46:14.083Z,100.00
2023-05-17T05:48:42.428Z,100.00
2023-05-17T05:51:11.102Z,100.00
2023-05-17T05:53:39.919Z,100.00
2023-05-17T05:56:09.791Z,100.00
2023-05-17T05:58:38.370Z,100.00
2023-05-17T06:01:08.341Z,100.00
2023-05-17T06:03:36.610Z,100.00
2023-05-17T06:06:05.224Z,100.00
2023-05-17T06:08:33.576Z,100.00
2023-05-17T06:11:01.903Z,100.00
2023-05-17T06:13:30.149Z,100.00
2023-05-17T06:15:59.762Z,100.00
2023-05-17T06:18:29.485Z,74.94
2023-05-17T06:20:57.836Z,75.34
2023-05-17T06:23:26.255Z,72.17
2023-05-17T06:25:54.515Z,74.39
2023-05-17T06:28:22.776Z,72.63
2023-05-17T06:30:51.656Z,73.47
2023-05-17T06:33:20.004Z,72.48
2023-05-17T06:35:57.213Z,72.64
2023-05-17T06:38:26.434Z,71.45
2023-05-17T06:40:57.723Z,71.35
2023-05-17T06:43:26.197Z,72.50
2023-05-17T06:45:54.530Z,72.33
2023-05-17T06:48:23.085Z,73.01
2023-05-17T06:50:52.951Z,71.52
2023-05-17T06:53:21.239Z,72.21
2023-05-17T06:55:49.616Z,70.47
2023-05-17T06:58:18.009Z,71.89
2023-05-17T07:00:46.440Z,71.14
2023-05-17T07:03:14.859Z,68.76
2023-05-17T07:05:43.169Z,69.04
2023-05-17T07:08:12.999Z,70.01
2023-05-17T07:10:41.272Z,70.32
2023-05-17T07:13:09.578Z,70.50
2023-05-17T07:15:37.948Z,68.99
2023-05-17T07:18:06.374Z,68.69
2023-05-17T07:20:34.862Z,67.65
2023-05-17T07:23:03.643Z,68.54
2023-05-17T07:25:33.453Z,67.54
2023-05-17T07:28:01.939Z,66.76
2023-05-17T07:30:30.287Z,67.19
2023-05-17T07:32:59.733Z,67.33
2023-05-17T07:35:28.384Z,67.74
2023-05-17T07:37:56.826Z,66.48
2023-05-17T07:40:25.272Z,66.98
2023-05-17T07:42:55.108Z,67.14
2023-05-17T07:45:23.411Z,66.83
2023-05-17T07:47:51.694Z,66.21
2023-05-17T07:50:20.103Z,66.01
2023-05-17T07:52:48.906Z,65.10
2023-05-17T07:55:17.387Z,66.89
2023-05-17T07:57:47.550Z,65.09
2023-05-17T08:00:19.499Z,64.74
2023-05-17T08:02:47.783Z,65.34
2023-05-17T08:05:16.289Z,64.44
2023-05-17T08:07:44.624Z,65.48
2023-05-17T08:10:13.042Z,64.36
2023-05-17T08:12:41.579Z,65.49
2023-05-17T08:15:10.417Z,65.44
2023-05-17T08:17:40.165Z,65.44
2023-05-17T08:20:10.092Z,63.94
2023-05-17T08:22:38.460Z,63.81
2023-05-17T08:25:07.842Z,64.23
2023-05-17T08:27:36.125Z,63.91
2023-05-17T08:30:09.020Z,64.59
2023-05-17T08:32:41.330Z,64.19
2023-05-17T08:35:09.854Z,65.99
2023-05-17T08:37:38.260Z,65.01
2023-05-17T08:40:08.671Z,64.72
2023-05-17T08:42:38.455Z,64.16
2023-05-17T08:45:08.799Z,65.71
2023-05-17T08:47:38.106Z,65.07
2023-05-17T08:50:08.602Z,65.10
2023-05-17T08:52:38.906Z,64.67
2023-05-17T08:55:09.306Z,65.03
2023-05-17T08:57:38.063Z,64.18
2023-05-17T09:00:12.988Z,65.84
2023-05-17T09:02:42.362Z,65.92
2023-05-17T09:05:14.161Z,64.99
2023-05-17T09:07:43.109Z,66.21
2023-05-17T09:10:13.737Z,65.96
2023-05-17T09:12:42.534Z,65.12
2023-05-17T09:15:16.392Z,65.59
2023-05-17T09:17:45.463Z,65.05
2023-05-17T09:20:24.476Z,64.99
2023-05-17T09:22:52.945Z,65.12
2023-05-17T09:25:21.500Z,64.87
2023-05-17T09:27:49.745Z,64.67
2023-05-17T09:30:18.178Z,64.44
2023-05-17T09:35:16.894Z,62.68
2023-05-17T09:37:47.335Z,63.44
2023-05-17T09:40:24.730Z,62.95
2023-05-17T09:42:53.226Z,63.43
2023-05-17T09:45:25.102Z,63.45
2023-05-17T09:47:53.705Z,62.70
2023-05-17T09:50:26.116Z,63.43
2023-05-17T09:52:54.667Z,64.36
2023-05-17T09:55:28.312Z,64.18
2023-05-17T09:58:04.748Z,63.51
2023-05-17T10:00:34.132Z,64.29
2023-05-17T10:03:04.368Z,64.14
2023-05-17T10:05:34.306Z,64.69
2023-05-17T10:08:02.899Z,64.42
2023-05-17T10:10:32.786Z,63.62
2023-05-17T10:13:02.435Z,62.83
2023-05-17T10:15:31.321Z,64.46
2023-05-17T10:18:00.982Z,64.34
2023-05-17T10:20:30.139Z,62.58
2023-05-17T10:23:00.939Z,63.88
2023-05-17T10:25:29.920Z,62.72
2023-05-17T10:27:58.596Z,62.51
2023-05-17T10:30:28.159Z,62.34
2023-05-17T10:32:57.571Z,61.91
2023-05-17T10:35:26.565Z,62.54
2023-05-17T10:37:55.106Z,63.52
2023-05-17T10:40:25.099Z,62.83
2023-05-17T10:42:55.114Z,62.11
2023-05-17T10:45:25.787Z,61.91
2023-05-17T10:47:54.610Z,62.46
2023-05-17T10:50:24.452Z,61.67
2023-05-17T10:52:53.882Z,62.53
2023-05-17T10:55:22.665Z,61.90
2023-05-17T10:58:20.877Z,63.19
2023-05-17T11:00:53.176Z,62.58
2023-05-17T11:03:23.205Z,62.08
2023-05-17T11:06:24.507Z,61.87
2023-05-17T11:09:10.339Z,61.94
2023-05-17T11:11:38.650Z,60.83
2023-05-17T11:14:12.018Z,62.52
2023-05-17T11:16:40.239Z,63.44
2023-05-17T11:19:10.073Z,62.63
2023-05-17T11:21:47.522Z,62.10
2023-05-17T11:24:22.341Z,61.37
2023-05-17T11:26:51.978Z,62.95
2023-05-17T11:29:22.103Z,62.54
2023-05-17T11:31:53.679Z,61.73
2023-05-17T11:34:25.786Z,61.93
2023-05-17T11:36:55.297Z,61.45
2023-05-17T11:39:25.146Z,60.58
2023-05-17T11:41:54.338Z,60.88
2023-05-17T11:44:30.953Z,61.39
2023-05-17T11:47:04.096Z,60.35
2023-05-17T11:49:36.449Z,61.36
2023-05-17T11:52:06.292Z,59.75
2023-05-17T11:54:35.052Z,60.46
2023-05-17T11:57:05.033Z,61.64
2023-05-17T11:59:40.734Z,60.98
2023-05-17T12:02:09.229Z,61.41
2023-05-17T12:04:38.923Z,61.35
2023-05-17T12:07:09.698Z,61.28
2023-05-17T12:09:38.545Z,60.82
2023-05-17T12:12:08.818Z,60.43
2023-05-17T12:14:37.258Z,60.39
2023-05-17T12:17:10.479Z,59.67
2023-05-17T12:19:38.994Z,59.89
2023-05-17T12:22:09.222Z,59.89
2023-05-17T12:24:41.389Z,58.36
2023-05-17T12:27:10.332Z,58.70
2023-05-17T12:29:40.436Z,58.37
2023-05-17T12:32:11.751Z,58.11
2023-05-17T12:34:40.955Z,59.11
2023-05-17T12:37:11.161Z,58.83
2023-05-17T12:39:39.912Z,57.65
2023-05-17T12:42:10.051Z,58.30
2023-05-17T12:44:38.375Z,59.09
2023-05-17T12:47:06.893Z,59.20
2023-05-17T12:49:41.338Z,59.21
2023-05-17T12:52:09.527Z,59.17
2023-05-17T12:54:38.928Z,60.72
2023-05-17T12:57:16.153Z,60.30
2023-05-17T12:59:49.239Z,61.03
2023-05-17T13:02:18.551Z,64.04
2023-05-17T13:04:48.351Z,62.32
2023-05-17T13:07:24.191Z,63.52
2023-05-17T13:09:52.681Z,63.84
2023-05-17T13:12:22.406Z,66.56
2023-05-17T13:14:53.394Z,64.97
2023-05-17T13:17:26.437Z,65.33
2023-05-17T13:19:58.205Z,64.47
2023-05-17T13:22:27.165Z,63.95
2023-05-17T13:24:56.085Z,63.58
2023-05-17T13:27:24.385Z,65.03
2023-05-17T13:29:52.796Z,65.10
2023-05-17T13:32:22.597Z,64.67
2023-05-17T13:34:51.003Z,65.23
2023-05-17T13:37:21.375Z,65.90
2023-05-17T13:39:49.709Z,63.94
2023-05-17T13:42:18.138Z,63.58
2023-05-17T13:44:46.403Z,67.35
2023-05-17T13:47:14.635Z,64.98
2023-05-17T13:49:43.360Z,65.63
2023-05-17T13:52:13.466Z,65.57
2023-05-17T13:54:43.068Z,66.30
2023-05-17T13:57:11.377Z,66.29
2023-05-17T13:59:39.794Z,65.79
2023-05-17T14:02:08.188Z,65.24
2023-05-17T14:04:36.403Z,67.06
2023-05-17T14:07:05.283Z,67.68
2023-05-17T14:09:34.762Z,63.97
2023-05-17T14:12:04.714Z,66.40
2023-05-17T14:14:32.988Z,64.74
2023-05-17T14:17:02.015Z,67.09
2023-05-17T14:19:30.573Z,66.05
2023-05-17T14:21:59.243Z,64.06
2023-05-17T14:24:27.509Z,64.42
2023-05-17T14:26:56.465Z,65.81
2023-05-17T14:29:26.269Z,65.78
2023-05-17T14:31:54.484Z,66.03
2023-05-17T14:34:22.795Z,64.33
2023-05-17T14:36:51.148Z,63.48
2023-05-17T14:39:19.372Z,64.14
2023-05-17T14:41:47.736Z,65.15
2023-05-17T14:44:16.035Z,66.24
2023-05-17T14:46:45.626Z,65.20
2023-05-17T14:49:14.120Z,65.94
2023-05-17T14:51:42.489Z,65.60
2023-05-17T14:54:13.374Z,68.04
2023-05-17T14:56:42.482Z,63.67
2023-05-17T14:59:10.916Z,66.24
2023-05-17T15:01:39.225Z,65.24
2023-05-17T15:04:09.747Z,67.20
2023-05-17T15:06:38.809Z,68.04
2023-05-17T15:09:07.021Z,67.15
2023-05-17T15:11:35.324Z,65.50
2023-05-17T15:14:03.593Z,64.87
2023-05-17T15:16:32.020Z,67.01
2023-05-17T15:19:01.038Z,66.39
2023-05-17T15:21:30.726Z,68.08
2023-05-17T15:23:59.436Z,68.46
2023-05-17T15:26:27.690Z,67.66
2023-05-17T15:28:55.878Z,67.35
2023-05-17T15:31:24.481Z,67.42
2023-05-17T15:33:53.092Z,67.74
2023-05-17T15:36:21.271Z,67.84
2023-05-17T15:38:50.934Z,67.97
2023-05-17T15:41:22.466Z,68.16
2023-05-17T15:43:50.703Z,69.48
2023-05-17T15:46:19.679Z,70.34
2023-05-17T15:48:48.012Z,70.15
2023-05-17T15:51:16.331Z,70.10
2023-05-17T15:53:44.549Z,69.10
2023-05-17T15:56:16.069Z,70.02
2023-05-17T15:58:44.471Z,71.10
2023-05-17T16:01:12.807Z,71.97
2023-05-17T16:03:41.018Z,71.78
2023-05-17T16:06:09.411Z,71.10
2023-05-17T16:08:37.652Z,71.50
2023-05-17T16:11:05.914Z,72.53
2023-05-17T16:13:35.586Z,72.73
2023-05-17T16:16:04.646Z,72.76
2023-05-17T16:18:33.155Z,73.29
2023-05-17T16:21:03.916Z,73.06
2023-05-17T16:23:32.857Z,74.34
2023-05-17T16:26:01.654Z,73.79
2023-05-17T16:28:31.895Z,72.31
2023-05-17T16:31:02.603Z,72.82
2023-05-17T16:33:30.932Z,72.87
2023-05-17T16:35:59.695Z,73.28
2023-05-17T16:38:27.896Z,72.65
2023-05-17T16:40:56.566Z,73.17
2023-05-17T16:43:24.876Z,74.09
2023-05-17T16:45:53.234Z,74.34
2023-05-17T16:48:22.897Z,73.73
2023-05-17T16:50:51.597Z,73.96
2023-05-17T16:53:20.220Z,73.93
2023-05-17T16:55:48.513Z,73.29
2023-05-17T16:58:16.815Z,74.54
2023-05-17T17:00:45.051Z,74.81
2023-05-17T17:03:13.683Z,74.39
2023-05-17T17:05:43.438Z,74.10
2023-05-17T17:08:11.673Z,73.90
2023-05-17T17:10:39.962Z,73.42
2023-05-17T17:13:08.171Z,73.51
2023-05-17T17:15:36.320Z,73.97
2023-05-17T17:18:04.701Z,74.40
2023-05-17T17:20:33.364Z,73.74
2023-05-17T17:23:03.663Z,72.49
2023-05-17T17:25:32.019Z,74.02
2023-05-17T17:28:00.347Z,73.20
2023-05-17T17:30:28.700Z,73.36
2023-05-17T17:32:57.270Z,72.78
2023-05-17T17:35:25.599Z,73.70
2023-05-17T17:37:54.396Z,74.08
2023-05-17T17:40:23.986Z,73.35
2023-05-17T17:42:52.316Z,72.25
2023-05-17T17:45:20.754Z,71.32
2023-05-17T17:47:48.883Z,71.76
2023-05-17T17:50:17.177Z,71.78
2023-05-17T17:52:45.391Z,72.16
2023-05-17T17:55:13.789Z,72.40
2023-05-17T17:57:43.416Z,72.13
2023-05-17T18:00:13.184Z,71.63
2023-05-17T18:02:41.408Z,72.54
2023-05-17T18:05:10.743Z,72.04
2023-05-17T18:07:39.047Z,72.44
2023-05-17T18:10:08.450Z,72.65
2023-05-17T18:12:36.729Z,72.57
2023-05-17T18:15:07.184Z,72.87
2023-05-17T18:17:35.384Z,72.29
2023-05-17T18:20:03.872Z,73.11
2023-05-17T18:22:32.299Z,72.75
2023-05-17T18:25:00.810Z,72.90
2023-05-17T18:27:28.974Z,72.19
2023-05-17T18:29:57.150Z,73.70
2023-05-17T18:32:27.214Z,73.97
2023-05-17T18:34:55.556Z,73.81
2023-05-17T18:37:24.221Z,73.94
2023-05-17T18:39:54.298Z,73.67
2023-05-17T18:42:25.129Z,72.38
2023-05-17T18:44:54.288Z,72.93
2023-05-17T18:47:23.747Z,72.99
2023-05-17T18:49:53.861Z,73.09
2023-05-17T18:52:22.648Z,73.88
2023-05-17T18:54:50.908Z,74.59
2023-05-17T18:57:19.156Z,73.63
2023-05-17T18:59:48.331Z,73.20
2023-05-17T19:02:17.846Z,75.12
2023-05-17T19:04:46.732Z,74.22
2023-05-17T19:07:17.840Z,72.85
2023-05-17T19:09:46.500Z,72.52
2023-05-17T19:12:14.909Z,71.67
2023-05-17T19:14:43.636Z,70.61
2023-05-17T19:17:11.977Z,71.59
2023-05-17T19:19:40.447Z,71.79
2023-05-17T19:22:11.443Z,72.11
2023-05-17T19:24:42.247Z,71.89
2023-05-17T19:27:17.080Z,70.97
2023-05-17T19:29:45.542Z,70.86
2023-05-17T19:32:14.391Z,70.32
2023-05-17T19:34:43.341Z,69.81
2023-05-17T19:37:11.757Z,70.37
2023-05-17T19:39:42.257Z,70.40
2023-05-17T19:42:11.429Z,70.25
2023-05-17T19:44:41.798Z,70.02
2023-05-17T19:47:10.146Z,70.04
2023-05-17T19:49:39.193Z,69.90
2023-05-17T19:52:08.439Z,70.12
2023-05-17T19:54:36.888Z,69.84
2023-05-17T19:57:08.255Z,69.78
2023-05-17T19:59:37.116Z,69.45
2023-05-17T20:02:06.715Z,69.95
2023-05-17T20:04:35.647Z,69.29
2023-05-17T20:07:04.101Z,69.96
2023-05-17T20:09:32.485Z,70.83
2023-05-17T20:12:01.497Z,70.73
2023-05-17T20:14:32.402Z,69.97
2023-05-17T20:17:01.156Z,69.63
2023-05-17T20:19:33.115Z,69.35
2023-05-17T20:22:02.062Z,68.70
2023-05-17T20:24:30.784Z,68.33
2023-05-17T20:27:00.214Z,68.60
2023-05-17T20:29:30.308Z,68.57
2023-05-17T20:31:58.986Z,67.86
2023-05-17T20:34:28.683Z,68.31
2023-05-17T20:36:57.766Z,68.74
2023-05-17T20:39:28.114Z,68.76
2023-05-17T20:41:57.147Z,67.90
2023-05-17T20:44:26.069Z,67.22
2023-05-17T20:46:56.750Z,68.47
2023-05-17T20:49:25.041Z,68.18
2023-05-17T20:51:53.282Z,67.58
2023-05-17T20:54:21.380Z,67.45
2023-05-17T20:56:49.614Z,67.71
2023-05-17T20:59:20.938Z,67.74
2023-05-17T21:01:50.308Z,67.35
2023-05-17T21:04:20.074Z,67.01
2023-05-17T21:06:48.528Z,66.54
2023-05-17T21:09:19.076Z,67.56
2023-05-17T21:11:47.300Z,67.67
2023-05-17T21:14:15.726Z,67.86
2023-05-17T21:16:44.031Z,67.15
2023-05-17T21:19:12.524Z,68.21
2023-05-17T21:21:42.341Z,67.60
2023-05-17T21:24:10.869Z,67.80
2023-05-17T21:26:40.817Z,67.18
2023-05-17T21:29:09.688Z,66.87
2023-05-17T21:31:38.421Z,66.74
2023-05-17T21:34:06.747Z,66.89
2023-05-17T21:36:35.128Z,66.67
2023-05-17T21:39:04.971Z,67.34
2023-05-17T21:41:33.282Z,66.69
2023-05-17T21:44:01.646Z,67.23
2023-05-17T21:46:30.000Z,66.33
2023-05-17T21:48:58.419Z,66.42
2023-05-17T21:51:26.862Z,66.91
2023-05-17T21:53:55.203Z,66.04
2023-05-17T21:56:25.150Z,66.18
2023-05-17T21:58:54.908Z,65.84
2023-05-17T22:01:24.354Z,65.99
2023-05-17T22:03:53.758Z,66.88
2023-05-17T22:06:22.517Z,66.01
2023-05-17T22:08:50.865Z,66.95
2023-05-17T22:11:22.942Z,66.15
2023-05-17T22:13:53.142Z,66.30
2023-05-17T22:16:24.236Z,67.26
2023-05-17T22:18:53.670Z,66.65
2023-05-17T22:21:23.115Z,66.00
2023-05-17T22:23:52.564Z,66.06
2023-05-17T22:26:21.987Z,66.67
2023-05-17T22:28:50.779Z,66.60
2023-05-17T22:31:20.576Z,66.86
2023-05-17T22:33:49.279Z,67.55
2023-05-17T22:36:19.250Z,67.60
2023-05-17T22:38:47.818Z,66.39
2023-05-17T22:41:16.081Z,66.79
2023-05-17T22:43:44.351Z,66.55
2023-05-17T22:46:12.695Z,66.09
2023-05-17T22:48:42.423Z,67.32
2023-05-17T22:51:12.821Z,66.81
2023-05-17T22:53:41.187Z,66.56
2023-05-17T22:56:09.384Z,65.71
2023-05-17T22:58:37.762Z,66.05
2023-05-17T23:01:06.166Z,65.81
2023-05-17T23:03:34.553Z,66.67
2023-05-17T23:06:05.348Z,65.90
2023-05-17T23:08:34.084Z,65.86
2023-05-17T23:11:05.049Z,66.48
2023-05-17T23:13:33.250Z,65.23
2023-05-17T23:16:01.490Z,65.84
2023-05-17T23:18:29.654Z,65.65
2023-05-17T23:20:59.279Z,65.29
2023-05-17T23:23:30.078Z,66.01
2023-05-17T23:25:58.941Z,65.09
2023-05-17T23:28:27.172Z,65.17
2023-05-17T23:30:55.691Z,65.01
2023-05-17T23:33:23.983Z,65.38
2023-05-17T23:35:53.708Z,65.77
2023-05-17T23:38:22.450Z,64.83
2023-05-17T23:40:52.256Z,64.79
2023-05-17T23:43:20.480Z,64.64
2023-05-17T23:45:48.753Z,65.30
2023-05-17T23:48:20.911Z,65.35
2023-05-17T23:50:49.197Z,65.03
2023-05-17T23:53:18.756Z,64.65
2023-05-17T23:55:47.380Z,64.67
2023-05-17T23:58:17.048Z,64.53
